Time;durP1;ratioP1;P1;durP2;ratioP2;P2;SDS_P1;SDS_P2;PMS_P1;PMS_P2;Temp;Humidity;BMP_temperature;BMP_pressure;BME280_temperature;BME280_humidity;BME280_pressure;Samples;Min_cycle;Max_cycle;Signal;HPM_P1;HPM_P2
2023/04/08 00:00:47;;;;;;;;;;;;;;;4.97;100.00;100151.75;5071420;28;865;-57
2023/04/08 00:03:14;;;;;;;;;;;;;;;4.82;100.00;100150.63;5071420;28;873;-58
2023/04/08 00:05:41;;;;;;;;;;;;;;;4.72;100.00;100153.09;5071329;28;849;-57
2023/04/08 00:08:07;;;;;;;;;;;;;;;4.56;100.00;100145.66;5071257;28;1005;-58
2023/04/08 00:10:34;;;;;;;;;;;;;;;4.41;100.00;100146.47;5071096;28;1939;-58
2023/04/08 00:13:01;;;;;;;;;;;;;;;4.29;100.00;100145.41;5071278;28;821;-57
2023/04/08 00:15:27;;;;;;;;;;;;;;;4.34;100.00;100149.81;5071233;28;845;-57
2023/04/08 00:17:53;;;;;;;;;;;;;;;4.29;100.00;100144.59;5071195;28;842;-58
2023/04/08 00:20:21;;;;;;;;;;;;;;;4.16;100.00;100145.81;5071230;28;892;-57
2023/04/08 00:22:48;;;;;;;;;;;;;;;4.02;100.00;100143.50;5071130;28;848;-57
2023/04/08 00:25:15;;;;;;;;;;;;;;;3.88;100.00;100143.88;5071098;28;814;-57
2023/04/08 00:27:42;;;;;;;;;;;;;;;3.82;100.00;100146.09;5071139;28;905;-57
2023/04/08 00:30:08;;;;;;;;;;;;;;;3.79;100.00;100140.53;5071066;28;1905;-57
2023/04/08 00:32:35;;;;;;;;;;;;;;;3.71;100.00;100136.78;5069812;28;1270;-57
2023/04/08 00:35:02;;;;;;;;;;;;;;;3.58;100.00;100137.97;5071340;28;841;-57
2023/04/08 00:37:28;;;;;;;;;;;;;;;3.51;100.00;100141.31;5071042;28;822;-57
2023/04/08 00:39:55;;;;;;;;;;;;;;;3.63;100.00;100138.53;5071067;28;822;-57
2023/04/08 00:42:21;;;;;;;;;;;;;;;3.71;100.00;100133.25;5071167;28;897;-57
2023/04/08 00:44:48;;;;;;;;;;;;;;;3.72;100.00;100135.66;5070968;28;881;-57
2023/04/08 00:47:15;;;;;;;;;;;;;;;3.66;100.00;100123.38;5074806;28;798;-57
2023/04/08 00:49:42;;;;;;;;;;;;;;;3.59;100.00;100134.13;5074599;28;1886;-57
2023/04/08 00:52:08;;;;;;;;;;;;;;;3.52;100.00;100131.16;5074574;28;861;-57
2023/04/08 00:54:35;;;;;;;;;;;;;;;3.38;100.00;100123.34;5074473;28;866;-57
2023/04/08 00:57:03;;;;;;;;;;;;;;;3.21;100.00;100119.75;5073290;28;1305;-57
2023/04/08 00:59:30;;;;;;;;;;;;;;;3.11;100.00;100125.69;5074496;28;829;-57
2023/04/08 01:02:05;;;;;;;;;;;;;;;3.11;100.00;100130.34;5074673;28;884;-57
2023/04/08 01:04:31;;;;;;;;;;;;;;;3.15;100.00;100132.06;5074432;28;846;-57
2023/04/08 01:07:06;;;;;;;;;;;;;;;3.18;100.00;100130.56;5074372;28;809;-57
2023/04/08 01:09:35;;;;;;;;;;;;;;;3.19;100.00;100122.03;5074360;28;1955;-57
2023/04/08 01:12:04;;;;;;;;;;;;;;;3.18;100.00;100120.44;5074468;28;814;-57
2023/04/08 01:14:34;;;;;;;;;;;;;;;3.20;100.00;100118.16;5074202;28;871;-57
2023/04/08 01:17:01;;;;;;;;;;;;;;;3.36;100.00;100115.50;5074487;28;880;-57
2023/04/08 01:19:32;;;;;;;;;;;;;;;3.39;100.00;100122.19;5074133;28;802;-57
2023/04/08 01:22:02;;;;;;;;;;;;;;;3.44;100.00;100119.25;5074200;28;842;-57
2023/04/08 01:24:32;;;;;;;;;;;;;;;3.66;100.00;100117.91;5073910;28;889;-57
2023/04/08 01:27:00;;;;;;;;;;;;;;;3.87;100.00;100117.69;5074883;28;771;-57
2023/04/08 01:29:27;;;;;;;;;;;;;;;4.07;100.00;100124.09;5074120;28;1953;-57
2023/04/08 01:31:54;;;;;;;;;;;;;;;4.20;100.00;100122.06;5074266;28;869;-58
2023/04/08 01:34:21;;;;;;;;;;;;;;;4.27;100.00;100112.13;5074048;28;881;-57
2023/04/08 01:36:49;;;;;;;;;;;;;;;4.29;100.00;100120.78;5074102;28;838;-57
2023/04/08 01:39:16;;;;;;;;;;;;;;;4.40;100.00;100120.25;5073996;28;850;-57
2023/04/08 01:41:44;;;;;;;;;;;;;;;4.49;100.00;100118.91;5073996;28;879;-57
2023/04/08 01:44:12;;;;;;;;;;;;;;;4.52;100.00;100127.56;5073713;28;869;-57
2023/04/08 01:46:40;;;;;;;;;;;;;;;4.43;100.00;100123.06;5073943;28;814;-57
2023/04/08 01:49:08;;;;;;;;;;;;;;;4.38;100.00;100123.34;5073555;28;813;-57
2023/04/08 01:51:36;;;;;;;;;;;;;;;4.23;100.00;100126.84;5073545;28;857;-57
2023/04/08 01:54:03;;;;;;;;;;;;;;;4.01;100.00;100130.94;5073441;28;908;-57
2023/04/08 01:56:32;;;;;;;;;;;;;;;3.78;100.00;100128.00;5073456;28;860;-57
2023/04/08 01:58:59;;;;;;;;;;;;;;;3.66;100.00;100132.38;5072985;28;873;-57
2023/04/08 02:01:28;;;;;;;;;;;;;;;3.53;100.00;100125.34;5073360;28;818;-57
2023/04/08 02:03:56;;;;;;;;;;;;;;;3.42;100.00;100124.25;5072011;28;889;-57
2023/04/08 02:06:23;;;;;;;;;;;;;;;3.33;100.00;100124.41;5073257;28;896;-57
2023/04/08 02:08:49;;;;;;;;;;;;;;;3.28;100.00;100119.16;5073279;28;968;-57
2023/04/08 02:11:16;;;;;;;;;;;;;;;3.27;100.00;100126.56;5072930;28;1905;-57
2023/04/08 02:13:42;;;;;;;;;;;;;;;3.28;100.00;100132.81;5073103;28;851;-57
2023/04/08 02:16:38;;;;;;;;;;;;;;;3.24;100.00;100134.66;5073053;28;846;-57
2023/04/08 02:19:08;;;;;;;;;;;;;;;3.21;100.00;100135.34;5059875;28;1333;-57
2023/04/08 02:21:49;;;;;;;;;;;;;;;3.14;100.00;100129.69;5073429;28;822;-57
2023/04/08 02:24:16;;;;;;;;;;;;;;;2.96;100.00;100132.63;5072873;28;822;-57
2023/04/08 02:26:43;;;;;;;;;;;;;;;2.95;100.00;100139.25;5073117;28;845;-57
2023/04/08 02:29:11;;;;;;;;;;;;;;;2.94;100.00;100137.66;5071421;28;1943;-57
2023/04/08 02:31:40;;;;;;;;;;;;;;;2.76;100.00;100130.84;5072689;28;802;-57
2023/04/08 02:34:08;;;;;;;;;;;;;;;2.63;100.00;100128.13;5072643;28;818;-57
2023/04/08 02:36:36;;;;;;;;;;;;;;;2.58;100.00;100124.81;5072547;28;791;-57
2023/04/08 02:39:02;;;;;;;;;;;;;;;2.52;100.00;100113.34;5072549;28;892;-57
2023/04/08 02:41:30;;;;;;;;;;;;;;;2.48;100.00;100114.38;5072481;28;853;-57
2023/04/08 02:43:57;;;;;;;;;;;;;;;2.44;100.00;100116.97;5072459;28;901;-57
2023/04/08 02:46:24;;;;;;;;;;;;;;;2.37;100.00;100116.72;5072443;28;865;-57
2023/04/08 02:48:50;;;;;;;;;;;;;;;2.40;100.00;100118.78;5072400;28;802;-57
2023/04/08 02:51:17;;;;;;;;;;;;;;;2.42;100.00;100127.41;5072192;28;1885;-57
2023/04/08 02:53:43;;;;;;;;;;;;;;;2.45;100.00;100122.09;5072218;28;834;-57
2023/04/08 02:56:10;;;;;;;;;;;;;;;2.50;100.00;100128.44;5072236;28;834;-57
2023/04/08 02:58:36;;;;;;;;;;;;;;;2.50;100.00;100131.16;5072188;28;857;-57
2023/04/08 03:01:02;;;;;;;;;;;;;;;2.49;100.00;100129.59;5070923;28;817;-57
2023/04/08 03:03:30;;;;;;;;;;;;;;;2.49;100.00;100137.78;5072283;28;857;-57
2023/04/08 03:05:56;;;;;;;;;;;;;;;2.47;100.00;100135.38;5072081;28;884;-57
2023/04/08 03:08:23;;;;;;;;;;;;;;;2.45;100.00;100143.91;5072090;28;1041;-57
2023/04/08 03:10:50;;;;;;;;;;;;;;;2.42;100.00;100143.78;5071677;28;1977;-57
2023/04/08 03:13:16;;;;;;;;;;;;;;;2.49;100.00;100154.94;5071956;28;868;-57
2023/04/08 03:15:43;;;;;;;;;;;;;;;2.56;100.00;100149.72;5072087;28;810;-57
2023/04/08 03:18:09;;;;;;;;;;;;;;;2.59;100.00;100143.56;5071940;28;810;-57
2023/04/08 03:20:36;;;;;;;;;;;;;;;2.54;100.00;100140.25;5071800;28;814;-57
2023/04/08 03:23:02;;;;;;;;;;;;;;;2.45;100.00;100145.81;5072067;28;825;-57
2023/04/08 03:25:30;;;;;;;;;;;;;;;2.47;100.00;100151.75;5071707;28;818;-57
2023/04/08 03:27:57;;;;;;;;;;;;;;;2.46;100.00;100150.16;5071826;28;923;-57
2023/04/08 03:30:24;;;;;;;;;;;;;;;2.35;100.00;100152.53;5071837;28;1943;-57
2023/04/08 03:32:50;;;;;;;;;;;;;;;2.27;100.00;100163.53;5071967;28;790;-57
2023/04/08 03:35:16;;;;;;;;;;;;;;;2.24;100.00;100162.25;5071711;28;1028;-57
2023/04/08 03:37:44;;;;;;;;;;;;;;;2.07;100.00;100167.91;5071639;28;897;-57
2023/04/08 03:40:10;;;;;;;;;;;;;;;2.03;100.00;100167.81;5071644;28;849;-57
2023/04/08 03:42:37;;;;;;;;;;;;;;;2.04;100.00;100172.09;5071568;28;790;-57
2023/04/08 03:45:04;;;;;;;;;;;;;;;2.00;100.00;100176.63;5071636;28;865;-57
2023/04/08 03:47:31;;;;;;;;;;;;;;;2.00;100.00;100173.91;5071510;28;872;-57
2023/04/08 03:49:57;;;;;;;;;;;;;;;2.14;100.00;100170.91;5071469;28;1886;-57
2023/04/08 03:52:24;;;;;;;;;;;;;;;2.21;100.00;100176.59;5071407;28;905;-57
2023/04/08 03:54:51;;;;;;;;;;;;;;;2.27;100.00;100182.63;5071486;28;864;-57
2023/04/08 03:57:17;;;;;;;;;;;;;;;2.40;100.00;100181.53;5071469;28;865;-57
2023/04/08 03:59:44;;;;;;;;;;;;;;;2.55;100.00;100180.88;5071422;28;884;-57
2023/04/08 04:02:11;;;;;;;;;;;;;;;2.60;100.00;100185.31;5071371;28;834;-57
2023/04/08 04:04:37;;;;;;;;;;;;;;;2.66;100.00;100182.00;5071383;28;822;-57
2023/04/08 04:07:04;;;;;;;;;;;;;;;2.70;100.00;100192.25;5071402;28;834;-57
2023/04/08 04:09:30;;;;;;;;;;;;;;;2.75;100.00;100195.56;5071171;28;1984;-57
2023/04/08 04:11:57;;;;;;;;;;;;;;;2.84;100.00;100192.72;5071612;28;809;-57
2023/04/08 04:14:24;;;;;;;;;;;;;;;3.00;100.00;100199.09;5071248;28;831;-57
2023/04/08 04:16:50;;;;;;;;;;;;;;;3.08;100.00;100191.94;5071302;28;850;-57
2023/04/08 04:19:17;;;;;;;;;;;;;;;3.10;100.00;100197.84;5071149;28;857;-57
2023/04/08 04:21:44;;;;;;;;;;;;;;;3.19;100.00;100193.06;5074178;28;877;-57
2023/04/08 04:24:12;;;;;;;;;;;;;;;3.30;100.00;100198.84;5075170;28;810;-57
2023/04/08 04:26:41;;;;;;;;;;;;;;;3.36;100.00;100197.47;5075177;28;916;-57
2023/04/08 04:29:07;;;;;;;;;;;;;;;3.41;100.00;100196.44;5075310;28;887;-57
2023/04/08 04:31:35;;;;;;;;;;;;;;;3.52;100.00;100203.03;5074990;28;1956;-57
2023/04/08 04:34:01;;;;;;;;;;;;;;;3.63;100.00;100195.16;5073675;28;873;-57
2023/04/08 04:36:28;;;;;;;;;;;;;;;3.74;100.00;100201.72;5074918;28;802;-57
2023/04/08 04:38:55;;;;;;;;;;;;;;;3.90;100.00;100204.50;5074910;28;877;-57
2023/04/08 04:41:27;;;;;;;;;;;;;;;4.06;100.00;100202.63;5075102;28;877;-57
2023/04/08 04:43:54;;;;;;;;;;;;;;;4.28;100.00;100204.00;5074828;28;882;-57
2023/04/08 04:46:21;;;;;;;;;;;;;;;4.71;100.00;100204.31;5074682;28;830;-57
2023/04/08 04:48:48;;;;;;;;;;;;;;;5.23;100.00;100207.91;5074789;28;896;-57
2023/04/08 05:03:39;;;;;;;;;;;;;;;6.78;100.00;100220.81;5074980;28;617;-58
2023/04/08 05:06:06;;;;;;;;;;;;;;;6.69;100.00;100220.28;5074957;28;892;-58
2023/04/08 05:08:33;;;;;;;;;;;;;;;6.74;100.00;100223.53;5074645;28;985;-57
2023/04/08 05:11:01;;;;;;;;;;;;;;;7.07;100.00;100227.59;5074342;28;1942;-58
2023/04/08 05:13:28;;;;;;;;;;;;;;;7.48;100.00;100227.81;5074544;28;846;-57
2023/04/08 05:15:54;;;;;;;;;;;;;;;7.82;100.00;100232.63;5074460;28;798;-57
2023/04/08 05:18:20;;;;;;;;;;;;;;;8.24;100.00;100235.09;5074650;28;811;-57
2023/04/08 05:20:46;;;;;;;;;;;;;;;8.51;100.00;100238.56;5074693;28;805;-57
2023/04/08 05:23:13;;;;;;;;;;;;;;;8.52;100.00;100239.38;5074085;28;876;-57
2023/04/08 05:25:40;;;;;;;;;;;;;;;8.46;100.00;100233.38;5074045;28;878;-57
2023/04/08 05:28:06;;;;;;;;;;;;;;;8.60;100.00;100230.00;5073921;28;826;-57
2023/04/08 05:30:32;;;;;;;;;;;;;;;8.72;100.00;100237.97;5073890;28;1889;-57
2023/04/08 05:32:59;;;;;;;;;;;;;;;8.94;100.00;100241.75;5072636;28;862;-57
2023/04/08 05:35:25;;;;;;;;;;;;;;;9.38;100.00;100235.34;5073876;28;901;-58
2023/04/08 05:37:52;;;;;;;;;;;;;;;9.77;100.00;100234.00;5073879;28;829;-57
2023/04/08 05:40:19;;;;;;;;;;;;;;;9.97;100.00;100224.25;5073707;28;823;-57
2023/04/08 05:42:46;;;;;;;;;;;;;;;10.10;100.00;100229.44;5073938;28;893;-57
2023/04/08 05:45:12;;;;;;;;;;;;;;;10.21;100.00;100230.25;5073718;28;794;-57
2023/04/08 05:47:39;;;;;;;;;;;;;;;10.22;100.00;100240.16;5073655;28;906;-57
2023/04/08 05:50:05;;;;;;;;;;;;;;;10.33;100.00;100229.94;5073448;28;1886;-57
2023/04/08 05:52:32;;;;;;;;;;;;;;;10.46;100.00;100224.06;5073550;28;854;-57
2023/04/08 05:54:58;;;;;;;;;;;;;;;10.54;100.00;100231.16;5073448;28;818;-57
2023/04/08 05:57:25;;;;;;;;;;;;;;;10.55;100.00;100233.53;5073503;28;861;-57
2023/04/08 05:59:52;;;;;;;;;;;;;;;10.46;100.00;100235.13;5073388;28;842;-57
2023/04/08 06:02:18;;;;;;;;;;;;;;;10.79;100.00;100231.22;5073305;28;857;-57
2023/04/08 06:04:45;;;;;;;;;;;;;;;11.13;100.00;100234.38;5073369;28;858;-58
2023/04/08 06:07:12;;;;;;;;;;;;;;;11.61;100.00;100236.69;5073267;28;904;-57
2023/04/08 06:09:38;;;;;;;;;;;;;;;12.22;99.68;100241.25;5073110;28;1910;-58
2023/04/08 06:12:05;;;;;;;;;;;;;;;12.39;99.06;100242.38;5071877;28;925;-57
2023/04/08 06:14:32;;;;;;;;;;;;;;;12.50;95.96;100240.31;5073125;28;982;-57
2023/04/08 06:16:59;;;;;;;;;;;;;;;12.76;95.20;100243.72;5073009;28;814;-57
2023/04/08 06:19:25;;;;;;;;;;;;;;;13.43;92.22;100247.19;5072950;28;861;-57
2023/04/08 06:21:57;;;;;;;;;;;;;;;13.68;90.91;100252.50;5072939;28;896;-57
2023/04/08 06:24:26;;;;;;;;;;;;;;;13.59;91.72;100254.97;5072908;28;881;-57
2023/04/08 06:26:53;;;;;;;;;;;;;;;13.73;90.40;100248.50;5072860;28;842;-57
2023/04/08 06:29:22;;;;;;;;;;;;;;;13.32;90.89;100258.41;5072687;28;1949;-57
2023/04/08 06:31:49;;;;;;;;;;;;;;;13.08;92.20;100246.28;5072712;28;873;-57
2023/04/08 06:34:15;;;;;;;;;;;;;;;13.24;93.19;100245.75;5072721;28;862;-57
2023/04/08 06:36:42;;;;;;;;;;;;;;;13.68;90.97;100239.41;5072599;28;826;-57
2023/04/08 06:39:09;;;;;;;;;;;;;;;14.08;87.49;100225.84;5071254;28;1317;-58
2023/04/08 06:41:36;;;;;;;;;;;;;;;14.67;87.81;100223.88;5072876;28;806;-57
2023/04/08 06:44:02;;;;;;;;;;;;;;;15.32;82.21;100218.06;5072221;28;794;-57
2023/04/08 06:46:28;;;;;;;;;;;;;;;15.78;82.31;100222.00;5072532;28;826;-57
2023/04/08 06:48:55;;;;;;;;;;;;;;;16.41;77.19;100225.88;5072499;28;869;-58
2023/04/08 06:51:22;;;;;;;;;;;;;;;16.63;74.54;100223.41;5072249;28;1945;-58
2023/04/08 06:53:49;;;;;;;;;;;;;;;16.97;71.90;100209.06;5071069;28;1170;-57
2023/04/08 06:56:15;;;;;;;;;;;;;;;16.06;72.63;100226.22;5072245;28;850;-57
2023/04/08 06:58:42;;;;;;;;;;;;;;;15.08;76.46;100223.63;5072266;28;822;-58
2023/04/08 07:01:09;;;;;;;;;;;;;;;15.97;74.68;100223.22;5072188;28;931;-58
2023/04/08 07:03:35;;;;;;;;;;;;;;;15.66;75.38;100220.63;5072116;28;823;-58
2023/04/08 07:06:26;;;;;;;;;;;;;;;15.11;76.21;100228.34;5072129;28;806;-58
2023/04/08 07:08:53;;;;;;;;;;;;;;;13.67;80.57;100235.03;5070762;28;1493;-57
2023/04/08 07:11:20;;;;;;;;;;;;;;;13.04;86.65;100240.75;5071759;28;1971;-58
2023/04/08 07:13:47;;;;;;;;;;;;;;;14.74;81.84;100234.88;5071963;28;814;-58
2023/04/08 07:16:14;;;;;;;;;;;;;;;15.29;79.58;100238.41;5071951;28;854;-58
2023/04/08 07:18:42;;;;;;;;;;;;;;;14.71;79.00;100249.66;5071776;28;853;-58
2023/04/08 07:21:10;;;;;;;;;;;;;;;14.25;81.58;100254.63;5071846;28;838;-58
2023/04/08 07:23:37;;;;;;;;;;;;;;;13.87;82.14;100256.69;5070851;28;1371;-58
2023/04/08 07:26:08;;;;;;;;;;;;;;;14.25;81.77;100264.94;5070475;28;1284;-58
2023/04/08 07:28:35;;;;;;;;;;;;;;;13.99;82.14;100258.91;5071845;28;806;-58
2023/04/08 07:31:10;;;;;;;;;;;;;;;13.77;85.06;100258.34;5071771;28;1890;-58
2023/04/08 07:33:37;;;;;;;;;;;;;;;14.00;84.45;100257.72;5071657;28;916;-58
2023/04/08 07:36:04;;;;;;;;;;;;;;;13.96;84.78;100258.97;5071732;28;818;-58
2023/04/08 07:38:30;;;;;;;;;;;;;;;13.96;84.58;100261.72;5071634;28;814;-58
2023/04/08 07:40:56;;;;;;;;;;;;;;;14.03;84.17;100265.19;5071596;28;873;-58
2023/04/08 07:43:23;;;;;;;;;;;;;;;14.09;81.01;100266.31;5071787;28;850;-58
2023/04/08 07:45:50;;;;;;;;;;;;;;;14.08;80.50;100264.75;5071608;28;802;-58
2023/04/08 07:48:16;;;;;;;;;;;;;;;14.14;79.99;100267.06;5071697;28;850;-58
2023/04/08 07:50:44;;;;;;;;;;;;;;;14.42;80.62;100277.03;5071517;28;1894;-57
2023/04/08 07:53:10;;;;;;;;;;;;;;;14.49;78.38;100274.97;5071519;28;826;-57
2023/04/08 07:55:39;;;;;;;;;;;;;;;14.38;78.58;100281.84;5069535;28;1310;-57
2023/04/08 07:58:05;;;;;;;;;;;;;;;14.55;79.00;100280.06;5071403;28;847;-58
2023/04/08 08:00:32;;;;;;;;;;;;;;;15.11;77.04;100277.69;5071488;28;834;-57
2023/04/08 08:02:58;;;;;;;;;;;;;;;15.43;73.71;100279.16;5071493;28;810;-57
2023/04/08 08:05:25;;;;;;;;;;;;;;;15.25;72.66;100274.66;5071385;28;830;-57
2023/04/08 08:07:52;;;;;;;;;;;;;;;14.65;76.83;100279.16;5071459;28;822;-58
2023/04/08 08:10:18;;;;;;;;;;;;;;;14.81;77.78;100279.31;5071286;28;1973;-58
2023/04/08 08:12:44;;;;;;;;;;;;;;;15.47;76.58;100277.88;5071292;28;828;-57
2023/04/08 08:15:11;;;;;;;;;;;;;;;16.19;71.83;100276.53;5071365;28;838;-58
2023/04/08 08:17:37;;;;;;;;;;;;;;;16.89;70.50;100275.44;5071191;28;924;-57
2023/04/08 08:20:04;;;;;;;;;;;;;;;18.13;64.16;100275.47;5071207;28;840;-57
2023/04/08 08:22:31;;;;;;;;;;;;;;;17.13;67.64;100272.50;5071291;28;901;-57
2023/04/08 08:24:58;;;;;;;;;;;;;;;16.49;67.39;100280.31;5071427;28;838;-57
2023/04/08 08:27:25;;;;;;;;;;;;;;;16.54;64.90;100272.22;5071242;28;861;-57
2023/04/08 08:29:51;;;;;;;;;;;;;;;16.57;63.68;100275.38;5071134;28;1890;-57
2023/04/08 08:32:18;;;;;;;;;;;;;;;15.28;66.19;100278.59;5071219;28;822;-57
2023/04/08 08:34:44;;;;;;;;;;;;;;;14.57;69.38;100283.22;5071204;28;822;-58
2023/04/08 08:37:11;;;;;;;;;;;;;;;14.82;69.54;100283.66;5071085;28;830;-57
2023/04/08 08:39:37;;;;;;;;;;;;;;;15.45;65.79;100276.72;5071121;28;893;-57
2023/04/08 08:42:04;;;;;;;;;;;;;;;14.58;67.18;100243.09;5071250;28;916;-57
2023/04/08 08:44:31;;;;;;;;;;;;;;;16.00;68.94;100272.56;5071267;28;875;-57
2023/04/08 08:46:57;;;;;;;;;;;;;;;17.70;61.29;100268.25;5069784;28;1301;-57
2023/04/08 08:49:24;;;;;;;;;;;;;;;16.84;61.05;100267.59;5071260;28;951;-57
2023/04/08 08:51:52;;;;;;;;;;;;;;;15.97;63.67;100278.19;5071132;28;810;-57
2023/04/08 08:54:19;;;;;;;;;;;;;;;16.68;61.07;100282.25;5071360;28;830;-57
2023/04/08 08:56:47;;;;;;;;;;;;;;;16.37;61.03;100276.19;5071042;28;838;-57
2023/04/08 08:59:14;;;;;;;;;;;;;;;15.80;61.76;100263.38;5070900;28;826;-57
2023/04/08 09:01:41;;;;;;;;;;;;;;;15.98;63.25;100268.59;5070916;28;896;-57
2023/04/08 09:04:08;;;;;;;;;;;;;;;15.42;62.87;100266.41;5070905;28;791;-57
2023/04/08 09:06:35;;;;;;;;;;;;;;;14.53;64.96;100274.13;5072113;28;834;-57
2023/04/08 09:09:04;;;;;;;;;;;;;;;14.72;67.38;100265.13;5074602;28;942;-57
2023/04/08 09:11:30;;;;;;;;;;;;;;;15.83;64.07;100251.38;5074166;28;1902;-57
2023/04/08 09:13:57;;;;;;;;;;;;;;;16.29;62.04;100258.81;5074271;28;833;-57
2023/04/08 09:16:24;;;;;;;;;;;;;;;16.54;60.99;100257.50;5074098;28;853;-57
2023/04/08 09:18:51;;;;;;;;;;;;;;;16.90;59.60;100249.09;5074176;28;802;-57
2023/04/08 09:21:23;;;;;;;;;;;;;;;17.04;59.03;100244.41;5074184;28;810;-56
2023/04/08 09:23:51;;;;;;;;;;;;;;;16.89;59.81;100244.72;5074131;28;807;-56
2023/04/08 09:26:18;;;;;;;;;;;;;;;17.09;59.83;100246.66;5074025;28;794;-56
2023/04/08 09:28:57;;;;;;;;;;;;;;;16.84;57.74;100236.88;5074008;28;897;-57
2023/04/08 09:31:28;;;;;;;;;;;;;;;16.11;61.92;100244.47;5074178;28;1893;-57
2023/04/08 09:33:55;;;;;;;;;;;;;;;16.66;61.79;100237.28;5073947;28;858;-57
2023/04/08 09:36:22;;;;;;;;;;;;;;;16.82;62.02;100228.16;5073921;28;850;-57
2023/04/08 09:38:50;;;;;;;;;;;;;;;16.35;61.55;100238.78;5073912;28;799;-57
2023/04/08 10:09:43;;;;;;;;;;;;;;;16.10;56.54;100234.50;5809050;22;1957;-58
2023/04/08 10:12:10;;;;;;;;;;;;;;;15.76;59.07;100243.16;5073226;28;841;-58
2023/04/08 10:14:38;;;;;;;;;;;;;;;15.65;58.14;100237.75;5073215;28;928;-58
2023/04/08 10:17:22;;;;;;;;;;;;;;;15.76;57.82;100232.00;5073080;28;877;-58
2023/04/08 10:19:48;;;;;;;;;;;;;;;16.02;56.83;100228.28;5072422;28;806;-57
2023/04/08 10:22:35;;;;;;;;;;;;;;;16.64;57.88;100222.16;5071698;28;1245;-56
2023/04/08 10:25:17;;;;;;;;;;;;;;;17.00;57.61;100216.56;5072820;28;1076;-56
2023/04/08 10:27:45;;;;;;;;;;;;;;;16.51;56.32;100220.09;5072963;28;904;-57
2023/04/08 10:30:32;;;;;;;;;;;;;;;16.37;57.11;100214.81;5072788;28;1971;-57
2023/04/08 10:33:00;;;;;;;;;;;;;;;16.78;57.25;100207.13;5071453;28;1281;-57
2023/04/08 10:35:33;;;;;;;;;;;;;;;16.89;54.82;100202.06;5072601;28;1112;-57
2023/04/08 10:38:00;;;;;;;;;;;;;;;16.90;56.02;100209.25;5072692;28;884;-58
2023/04/08 10:40:27;;;;;;;;;;;;;;;16.91;54.51;100203.22;5072561;28;794;-58
2023/04/08 10:42:59;;;;;;;;;;;;;;;17.10;54.51;100197.97;5072614;28;917;-58
2023/04/08 10:45:26;;;;;;;;;;;;;;;17.25;53.61;100190.78;5072536;28;817;-58
2023/04/08 10:47:52;;;;;;;;;;;;;;;16.85;54.10;100190.22;5072700;28;877;-58
2023/04/08 10:50:22;;;;;;;;;;;;;;;16.63;53.22;100193.50;5071106;28;1930;-58
2023/04/08 10:52:49;;;;;;;;;;;;;;;17.00;53.00;100197.00;5071319;28;826;-58
2023/04/08 10:55:22;;;;;;;;;;;;;;;17.34;52.71;100185.34;5072628;28;873;-58
2023/04/08 10:57:50;;;;;;;;;;;;;;;17.56;51.56;100190.38;5072307;28;900;-58
2023/04/08 11:00:34;;;;;;;;;;;;;;;17.44;50.19;100185.53;5072255;28;908;-58
2023/04/08 11:03:03;;;;;;;;;;;;;;;17.80;52.29;100185.31;5072464;28;901;-58
2023/04/08 11:05:31;;;;;;;;;;;;;;;18.30;52.63;100178.25;5072163;28;814;-59
2023/04/08 11:07:59;;;;;;;;;;;;;;;18.48;49.66;100174.13;5071949;28;1028;-57
2023/04/08 11:10:27;;;;;;;;;;;;;;;18.23;50.27;100183.31;5071605;28;1882;-59
2023/04/08 11:12:54;;;;;;;;;;;;;;;18.51;49.25;100182.41;5070744;28;1326;-59
2023/04/08 11:15:21;;;;;;;;;;;;;;;18.81;49.38;100180.28;5071989;28;805;-59
2023/04/08 11:17:48;;;;;;;;;;;;;;;18.93;49.15;100173.88;5071929;28;842;-59
2023/04/08 11:20:14;;;;;;;;;;;;;;;19.25;49.67;100169.22;5071982;28;872;-59
2023/04/08 11:22:41;;;;;;;;;;;;;;;19.31;49.01;100167.41;5071899;28;849;-59
2023/04/08 11:25:09;;;;;;;;;;;;;;;19.48;46.64;100156.00;5071824;28;1027;-59
2023/04/08 11:27:35;;;;;;;;;;;;;;;19.12;44.11;100162.88;5071808;28;846;-59
2023/04/08 11:30:03;;;;;;;;;;;;;;;18.85;44.83;100157.78;5070941;28;1910;-59
2023/04/08 11:32:29;;;;;;;;;;;;;;;18.26;46.61;100160.00;5071998;28;849;-59
2023/04/08 11:34:58;;;;;;;;;;;;;;;18.61;47.36;100158.13;5071760;28;801;-59
2023/04/08 11:37:25;;;;;;;;;;;;;;;19.23;44.81;100143.66;5070436;28;1277;-59
2023/04/08 11:39:54;;;;;;;;;;;;;;;19.38;45.14;100138.34;5071643;28;911;-59
2023/04/08 11:42:31;;;;;;;;;;;;;;;19.46;45.71;100133.25;5071671;28;876;-59
2023/04/08 11:44:58;;;;;;;;;;;;;;;19.68;44.31;100138.88;5071915;28;896;-59
2023/04/08 11:47:34;;;;;;;;;;;;;;;20.03;43.64;100133.16;5071765;28;1048;-59
2023/04/08 11:50:00;;;;;;;;;;;;;;;19.74;42.11;100131.47;5071514;28;1917;-58
2023/04/08 11:52:41;;;;;;;;;;;;;;;20.16;43.72;100137.47;5071576;28;857;-59
2023/04/08 11:55:10;;;;;;;;;;;;;;;21.06;41.90;100133.81;5071550;28;841;-59
2023/04/08 11:57:36;;;;;;;;;;;;;;;20.99;42.14;100131.31;5071553;28;810;-59
2023/04/08 12:00:05;;;;;;;;;;;;;;;20.77;42.01;100131.44;5071488;28;825;-59
2023/04/08 12:02:32;;;;;;;;;;;;;;;20.53;41.34;100134.78;5071469;28;932;-59
2023/04/08 12:04:57;;;;;;;;;;;;;;;20.57;41.45;100137.44;5071485;28;770;-59
2023/04/08 12:07:24;;;;;;;;;;;;;;;20.68;40.83;100123.78;5071405;28;864;-59
2023/04/08 12:09:50;;;;;;;;;;;;;;;20.85;41.82;100123.50;5071486;28;1957;-59
2023/04/08 12:12:17;;;;;;;;;;;;;;;20.89;40.49;100124.91;5071538;28;888;-58
2023/04/08 12:14:43;;;;;;;;;;;;;;;20.62;40.34;100124.84;5071666;28;861;-59
2023/04/08 12:17:10;;;;;;;;;;;;;;;20.53;39.91;100114.34;5071523;28;849;-59
2023/04/08 12:19:36;;;;;;;;;;;;;;;20.12;41.50;100119.97;5071462;28;822;-59
2023/04/08 12:22:03;;;;;;;;;;;;;;;20.02;42.02;100111.97;5072089;28;845;-59
2023/04/08 12:24:30;;;;;;;;;;;;;;;19.69;42.41;100120.78;5071279;28;829;-59
2023/04/08 12:26:56;;;;;;;;;;;;;;;19.58;43.23;100115.56;5069979;28;1333;-59
2023/04/08 12:29:22;;;;;;;;;;;;;;;19.75;43.96;100113.38;5071193;28;868;-58
2023/04/08 12:31:50;;;;;;;;;;;;;;;19.82;42.94;100107.50;5069751;28;1967;-59
2023/04/08 12:34:17;;;;;;;;;;;;;;;19.70;44.01;100100.75;5071314;28;826;-59
2023/04/08 12:36:43;;;;;;;;;;;;;;;19.98;43.25;100093.25;5071000;28;826;-59
2023/04/08 12:39:10;;;;;;;;;;;;;;;19.96;43.06;100103.38;5071374;28;818;-59
2023/04/08 12:41:43;;;;;;;;;;;;;;;19.61;42.77;100111.06;5072113;28;813;-58
2023/04/08 12:44:13;;;;;;;;;;;;;;;19.36;44.36;100093.94;5074839;28;837;-59
2023/04/08 12:46:39;;;;;;;;;;;;;;;19.32;43.88;100098.13;5074748;28;885;-59
2023/04/08 12:49:06;;;;;;;;;;;;;;;19.49;44.14;100095.91;5074786;28;888;-59
2023/04/08 12:51:32;;;;;;;;;;;;;;;19.27;43.35;100096.69;5074639;28;1893;-59
2023/04/08 12:54:00;;;;;;;;;;;;;;;19.15;44.29;100097.53;5074983;28;782;-59
2023/04/08 12:56:26;;;;;;;;;;;;;;;18.88;43.96;100090.47;5074718;28;881;-58
2023/04/08 12:58:54;;;;;;;;;;;;;;;18.15;45.24;100102.38;5074528;28;837;-59
2023/04/08 13:01:20;;;;;;;;;;;;;;;16.92;48.07;100106.31;5074563;28;869;-58
2023/04/08 13:03:47;;;;;;;;;;;;;;;16.01;50.86;100106.06;5074341;28;1112;-58
2023/04/08 13:06:13;;;;;;;;;;;;;;;15.35;53.14;100114.16;5074398;28;1067;-58
2023/04/08 13:08:40;;;;;;;;;;;;;;;14.94;54.77;100117.31;5074552;28;1040;-59
2023/04/08 13:11:07;;;;;;;;;;;;;;;14.79;55.98;100114.00;5074158;28;1894;-58
2023/04/08 13:13:33;;;;;;;;;;;;;;;14.70;56.36;100111.75;5074276;28;889;-59
2023/04/08 13:16:00;;;;;;;;;;;;;;;14.69;56.13;100115.75;5074523;28;858;-58
2023/04/08 13:18:30;;;;;;;;;;;;;;;14.52;56.94;100122.38;5074142;28;952;-59
2023/04/08 13:20:57;;;;;;;;;;;;;;;14.40;58.30;100123.72;5074258;28;842;-59
2023/04/08 13:23:24;;;;;;;;;;;;;;;14.33;58.94;100116.28;5074197;28;837;-58
2023/04/08 13:25:50;;;;;;;;;;;;;;;14.21;59.47;100119.63;5074120;28;865;-58
2023/04/08 13:28:17;;;;;;;;;;;;;;;14.12;59.85;100122.16;5074053;28;798;-58
2023/04/08 13:30:44;;;;;;;;;;;;;;;14.00;60.84;100123.53;5074150;28;1910;-59
2023/04/08 13:33:11;;;;;;;;;;;;;;;13.81;62.52;100120.19;5074058;28;872;-59
2023/04/08 13:35:37;;;;;;;;;;;;;;;13.76;63.20;100130.97;5073830;28;802;-59
2023/04/08 13:38:04;;;;;;;;;;;;;;;13.44;63.94;100132.13;5073860;28;860;-59